sensor_id;sensor_type;location;lat;lon;timestamp;temperature;humidity
3418;DHT22;68007;51.312;12.372;2023-08-07T00:00:29;17.70;98.30
3418;DHT22;68007;51.312;12.372;2023-08-07T00:02:57;17.60;98.40
3418;DHT22;68007;51.312;12.372;2023-08-07T00:05:26;17.60;98.60
3418;DHT22;68007;51.312;12.372;2023-08-07T00:07:53;17.60;98.50
3418;DHT22;68007;51.312;12.372;2023-08-07T00:10:21;17.60;98.60
3418;DHT22;68007;51.312;12.372;2023-08-07T00:12:48;17.50;98.70
3418;DHT22;68007;51.312;12.372;2023-08-07T00:15:16;17.50;98.80
3418;DHT22;68007;51.312;12.372;2023-08-07T00:17:44;17.50;98.70
3418;DHT22;68007;51.312;12.372;2023-08-07T00:20:11;17.50;98.80
3418;DHT22;68007;51.312;12.372;2023-08-07T00:22:40;17.40;98.70
3418;DHT22;68007;51.312;12.372;2023-08-07T00:25:08;17.40;98.90
3418;DHT22;68007;51.312;12.372;2023-08-07T00:27:35;17.40;99.00
3418;DHT22;68007;51.312;12.372;2023-08-07T00:30:03;17.40;99.00
3418;DHT22;68007;51.312;12.372;2023-08-07T00:32:31;17.40;99.10
3418;DHT22;68007;51.312;12.372;2023-08-07T00:34:58;17.40;99.20
3418;DHT22;68007;51.312;12.372;2023-08-07T00:37:26;17.30;99.20
3418;DHT22;68007;51.312;12.372;2023-08-07T00:39:55;17.30;99.20
3418;DHT22;68007;51.312;12.372;2023-08-07T00:42:22;17.30;99.20
3418;DHT22;68007;51.312;12.372;2023-08-07T00:44:50;17.30;99.50
3418;DHT22;68007;51.312;12.372;2023-08-07T00:47:17;17.20;99.70
3418;DHT22;68007;51.312;12.372;2023-08-07T00:49:45;17.10;99.80
3418;DHT22;68007;51.312;12.372;2023-08-07T00:52:12;17.10;99.90
3418;DHT22;68007;51.312;12.372;2023-08-07T00:54:40;17.20;99.80
3418;DHT22;68007;51.312;12.372;2023-08-07T00:57:10;17.20;99.70
3418;DHT22;68007;51.312;12.372;2023-08-07T00:59:38;17.10;99.90
3418;DHT22;68007;51.312;12.372;2023-08-07T01:02:07;17.00;99.90
3418;DHT22;68007;51.312;12.372;2023-08-07T01:04:35;17.00;99.90
3418;DHT22;68007;51.312;12.372;2023-08-07T01:07:02;17.00;99.90
3418;DHT22;68007;51.312;12.372;2023-08-07T01:09:30;16.90;99.90
3418;DHT22;68007;51.312;12.372;2023-08-07T01:12:06;16.80;99.90
3418;DHT22;68007;51.312;12.372;2023-08-07T01:14:47;16.80;99.90
3418;DHT22;68007;51.312;12.372;2023-08-07T01:17:17;16.70;99.90
3418;DHT22;68007;51.312;12.372;2023-08-07T01:19:47;16.60;99.90
3418;DHT22;68007;51.312;12.372;2023-08-07T01:22:18;16.60;99.90
3418;DHT22;68007;51.312;12.372;2023-08-07T01:24:47;16.50;99.90
3418;DHT22;68007;51.312;12.372;2023-08-07T01:27:31;16.50;99.90
3418;DHT22;68007;51.312;12.372;2023-08-07T01:30:13;16.50;99.90
3418;DHT22;68007;51.312;12.372;2023-08-07T01:32:47;16.50;99.90
3418;DHT22;68007;51.312;12.372;2023-08-07T01:35:17;16.50;99.90
3418;DHT22;68007;51.312;12.372;2023-08-07T01:37:50;16.50;99.90
3418;DHT22;68007;51.312;12.372;2023-08-07T01:40:20;16.50;99.90
3418;DHT22;68007;51.312;12.372;2023-08-07T01:42:48;16.40;99.90
3418;DHT22;68007;51.312;12.372;2023-08-07T01:45:22;16.30;99.90
3418;DHT22;68007;51.312;12.372;2023-08-07T01:47:50;16.40;99.90
3418;DHT22;68007;51.312;12.372;2023-08-07T01:50:18;16.40;99.90
3418;DHT22;68007;51.312;12.372;2023-08-07T01:52:46;16.40;99.90
3418;DHT22;68007;51.312;12.372;2023-08-07T01:55:17;16.50;99.90
3418;DHT22;68007;51.312;12.372;2023-08-07T01:57:44;16.50;99.90
3418;DHT22;68007;51.312;12.372;2023-08-07T02:00:12;16.50;99.90
3418;DHT22;68007;51.312;12.372;2023-08-07T02:02:40;16.40;99.90
3418;DHT22;68007;51.312;12.372;2023-08-07T02:05:07;16.40;99.90
3418;DHT22;68007;51.312;12.372;2023-08-07T02:07:35;16.40;99.90
3418;DHT22;68007;51.312;12.372;2023-08-07T02:10:02;16.40;99.90
3418;DHT22;68007;51.312;12.372;2023-08-07T02:12:32;16.40;99.90
3418;DHT22;68007;51.312;12.372;2023-08-07T02:14:59;16.40;99.90
3418;DHT22;68007;51.312;12.372;2023-08-07T02:17:27;16.40;99.90
3418;DHT22;68007;51.312;12.372;2023-08-07T02:19:56;16.40;99.90
3418;DHT22;68007;51.312;12.372;2023-08-07T02:22:23;16.40;99.90
3418;DHT22;68007;51.312;12.372;2023-08-07T02:24:51;16.40;99.90
3418;DHT22;68007;51.312;12.372;2023-08-07T02:27:19;16.50;99.90
3418;DHT22;68007;51.312;12.372;2023-08-07T02:29:47;16.40;99.90
3418;DHT22;68007;51.312;12.372;2023-08-07T02:32:17;16.50;99.90
3418;DHT22;68007;51.312;12.372;2023-08-07T02:34:44;16.30;99.90
3418;DHT22;68007;51.312;12.372;2023-08-07T02:37:12;16.30;99.90
3418;DHT22;68007;51.312;12.372;2023-08-07T02:39:40;16.30;99.90
3418;DHT22;68007;51.312;12.372;2023-08-07T02:42:07;16.30;99.90
3418;DHT22;68007;51.312;12.372;2023-08-07T02:44:34;16.30;99.90
3418;DHT22;68007;51.312;12.372;2023-08-07T02:47:04;16.30;99.90
3418;DHT22;68007;51.312;12.372;2023-08-07T02:49:31;16.40;99.90
3418;DHT22;68007;51.312;12.372;2023-08-07T02:51:59;16.40;99.90
3418;DHT22;68007;51.312;12.372;2023-08-07T02:54:27;16.40;99.90
3418;DHT22;68007;51.312;12.372;2023-08-07T02:56:54;16.30;99.90
3418;DHT22;68007;51.312;12.372;2023-08-07T02:59:22;16.40;99.90
3418;DHT22;68007;51.312;12.372;2023-08-07T03:01:50;16.40;99.90
3418;DHT22;68007;51.312;12.372;2023-08-07T03:04:19;16.30;99.90
3418;DHT22;68007;51.312;12.372;2023-08-07T03:06:46;16.30;99.90
3418;DHT22;68007;51.312;12.372;2023-08-07T03:09:14;16.40;99.90
3418;DHT22;68007;51.312;12.372;2023-08-07T03:11:41;16.40;99.90
3418;DHT22;68007;51.312;12.372;2023-08-07T03:14:09;16.40;99.90
3418;DHT22;68007;51.312;12.372;2023-08-07T03:16:36;16.30;99.90
3418;DHT22;68007;51.312;12.372;2023-08-07T03:19:04;16.30;99.90
3418;DHT22;68007;51.312;12.372;2023-08-07T03:21:33;16.30;99.90
3418;DHT22;68007;51.312;12.372;2023-08-07T03:24:00;16.40;99.90
3418;DHT22;68007;51.312;12.372;2023-08-07T03:26:28;16.50;99.90
3418;DHT22;68007;51.312;12.372;2023-08-07T03:28:55;16.50;99.90
3418;DHT22;68007;51.312;12.372;2023-08-07T03:31:22;16.50;99.90
3418;DHT22;68007;51.312;12.372;2023-08-07T03:33:50;16.50;99.90
3418;DHT22;68007;51.312;12.372;2023-08-07T03:36:17;16.50;99.90
3418;DHT22;68007;51.312;12.372;2023-08-07T03:38:46;16.50;99.90
3418;DHT22;68007;51.312;12.372;2023-08-07T03:41:14;16.50;99.90
3418;DHT22;68007;51.312;12.372;2023-08-07T03:43:41;16.50;99.90
3418;DHT22;68007;51.312;12.372;2023-08-07T03:46:09;16.50;99.90
3418;DHT22;68007;51.312;12.372;2023-08-07T03:48:37;16.40;99.90
3418;DHT22;68007;51.312;12.372;2023-08-07T03:51:06;16.40;99.90
3418;DHT22;68007;51.312;12.372;2023-08-07T03:53:34;16.40;99.90
3418;DHT22;68007;51.312;12.372;2023-08-07T03:56:03;16.50;99.90
3418;DHT22;68007;51.312;12.372;2023-08-07T03:58:31;16.50;99.90
3418;DHT22;68007;51.312;12.372;2023-08-07T04:00:58;16.50;99.90
3418;DHT22;68007;51.312;12.372;2023-08-07T04:03:26;16.40;99.90
3418;DHT22;68007;51.312;12.372;2023-08-07T04:05:54;16.30;99.90
3418;DHT22;68007;51.312;12.372;2023-08-07T04:08:22;16.30;99.90
3418;DHT22;68007;51.312;12.372;2023-08-07T04:11:00;16.30;99.90
3418;DHT22;68007;51.312;12.372;2023-08-07T04:13:30;16.20;99.90
3418;DHT22;68007;51.312;12.372;2023-08-07T04:15:58;16.20;99.90
3418;DHT22;68007;51.312;12.372;2023-08-07T04:18:26;16.30;99.90
3418;DHT22;68007;51.312;12.372;2023-08-07T04:20:54;16.30;99.90
3418;DHT22;68007;51.312;12.372;2023-08-07T04:23:22;16.30;99.90
3418;DHT22;68007;51.312;12.372;2023-08-07T04:25:51;16.30;99.90
3418;DHT22;68007;51.312;12.372;2023-08-07T04:28:19;16.30;99.90
3418;DHT22;68007;51.312;12.372;2023-08-07T04:30:50;16.30;99.90
3418;DHT22;68007;51.312;12.372;2023-08-07T04:33:18;16.30;99.90
3418;DHT22;68007;51.312;12.372;2023-08-07T04:35:46;16.30;99.90
3418;DHT22;68007;51.312;12.372;2023-08-07T04:38:13;16.20;99.90
3418;DHT22;68007;51.312;12.372;2023-08-07T04:40:45;16.20;99.90
3418;DHT22;68007;51.312;12.372;2023-08-07T04:43:13;16.20;99.90
3418;DHT22;68007;51.312;12.372;2023-08-07T04:45:41;16.20;99.90
3418;DHT22;68007;51.312;12.372;2023-08-07T04:48:10;16.10;99.90
3418;DHT22;68007;51.312;12.372;2023-08-07T04:50:37;16.20;99.90
3418;DHT22;68007;51.312;12.372;2023-08-07T04:53:05;16.10;99.90
3418;DHT22;68007;51.312;12.372;2023-08-07T04:55:33;16.10;99.90
3418;DHT22;68007;51.312;12.372;2023-08-07T04:58:00;16.00;99.90
3418;DHT22;68007;51.312;12.372;2023-08-07T05:00:28;16.00;99.90
3418;DHT22;68007;51.312;12.372;2023-08-07T05:02:55;16.10;99.90
3418;DHT22;68007;51.312;12.372;2023-08-07T05:05:24;16.00;99.90
3418;DHT22;68007;51.312;12.372;2023-08-07T05:07:54;16.10;99.90
3418;DHT22;68007;51.312;12.372;2023-08-07T05:10:21;16.00;99.90
3418;DHT22;68007;51.312;12.372;2023-08-07T05:12:49;16.00;99.90
3418;DHT22;68007;51.312;12.372;2023-08-07T05:15:21;16.00;99.90
3418;DHT22;68007;51.312;12.372;2023-08-07T05:17:50;16.00;99.90
3418;DHT22;68007;51.312;12.372;2023-08-07T05:20:18;16.10;99.90
3418;DHT22;68007;51.312;12.372;2023-08-07T05:22:46;16.10;99.90
3418;DHT22;68007;51.312;12.372;2023-08-07T05:25:14;16.10;99.90
3418;DHT22;68007;51.312;12.372;2023-08-07T05:27:42;16.10;99.90
3418;DHT22;68007;51.312;12.372;2023-08-07T05:30:10;16.00;99.90
3418;DHT22;68007;51.312;12.372;2023-08-07T05:32:38;16.00;99.90
3418;DHT22;68007;51.312;12.372;2023-08-07T05:35:07;15.90;99.90
3418;DHT22;68007;51.312;12.372;2023-08-07T05:37:35;15.90;99.90
3418;DHT22;68007;51.312;12.372;2023-08-07T05:40:05;15.90;99.90
3418;DHT22;68007;51.312;12.372;2023-08-07T05:42:33;15.90;99.90
3418;DHT22;68007;51.312;12.372;2023-08-07T05:45:01;15.90;99.90
3418;DHT22;68007;51.312;12.372;2023-08-07T05:47:29;15.90;99.90
3418;DHT22;68007;51.312;12.372;2023-08-07T05:49:56;15.90;99.90
3418;DHT22;68007;51.312;12.372;2023-08-07T05:52:24;15.90;99.90
3418;DHT22;68007;51.312;12.372;2023-08-07T05:54:51;15.90;99.90
3418;DHT22;68007;51.312;12.372;2023-08-07T05:57:20;15.90;99.90
3418;DHT22;68007;51.312;12.372;2023-08-07T05:59:47;15.90;99.90
3418;DHT22;68007;51.312;12.372;2023-08-07T06:02:15;15.80;99.90
3418;DHT22;68007;51.312;12.372;2023-08-07T06:04:42;15.90;99.90
3418;DHT22;68007;51.312;12.372;2023-08-07T06:07:11;15.90;99.90
3418;DHT22;68007;51.312;12.372;2023-08-07T06:09:38;15.80;99.90
3418;DHT22;68007;51.312;12.372;2023-08-07T06:12:07;15.80;99.90
3418;DHT22;68007;51.312;12.372;2023-08-07T06:14:37;15.90;99.90
3418;DHT22;68007;51.312;12.372;2023-08-07T06:17:04;15.90;99.90
3418;DHT22;68007;51.312;12.372;2023-08-07T06:19:32;15.90;99.90
3418;DHT22;68007;51.312;12.372;2023-08-07T06:21:59;15.90;99.90
3418;DHT22;68007;51.312;12.372;2023-08-07T06:24:27;15.90;99.90
3418;DHT22;68007;51.312;12.372;2023-08-07T06:26:54;16.00;99.90
3418;DHT22;68007;51.312;12.372;2023-08-07T06:29:22;15.90;99.90
3418;DHT22;68007;51.312;12.372;2023-08-07T06:31:51;15.90;99.90
3418;DHT22;68007;51.312;12.372;2023-08-07T06:34:18;15.90;99.90
3418;DHT22;68007;51.312;12.372;2023-08-07T06:36:46;15.90;99.90
3418;DHT22;68007;51.312;12.372;2023-08-07T06:39:13;15.90;99.90
3418;DHT22;68007;51.312;12.372;2023-08-07T06:41:41;16.00;99.90
3418;DHT22;68007;51.312;12.372;2023-08-07T06:44:08;16.00;99.90
3418;DHT22;68007;51.312;12.372;2023-08-07T06:46:36;16.00;99.90
3418;DHT22;68007;51.312;12.372;2023-08-07T06:49:04;16.00;99.90
3418;DHT22;68007;51.312;12.372;2023-08-07T06:51:32;16.00;99.90
3418;DHT22;68007;51.312;12.372;2023-08-07T06:53:59;16.00;99.90
3418;DHT22;68007;51.312;12.372;2023-08-07T06:56:27;16.00;99.90
3418;DHT22;68007;51.312;12.372;2023-08-07T06:58:54;16.00;99.90
3418;DHT22;68007;51.312;12.372;2023-08-07T07:01:22;16.00;99.90
3418;DHT22;68007;51.312;12.372;2023-08-07T07:03:49;16.10;99.90
3418;DHT22;68007;51.312;12.372;2023-08-07T07:06:20;16.10;99.90
3418;DHT22;68007;51.312;12.372;2023-08-07T07:08:49;16.10;99.90
3418;DHT22;68007;51.312;12.372;2023-08-07T07:11:17;16.10;99.90
3418;DHT22;68007;51.312;12.372;2023-08-07T07:13:45;16.10;99.90
3418;DHT22;68007;51.312;12.372;2023-08-07T07:16:12;16.10;99.90
3418;DHT22;68007;51.312;12.372;2023-08-07T07:18:40;16.10;99.90
3418;DHT22;68007;51.312;12.372;2023-08-07T07:21:07;16.20;99.90
3418;DHT22;68007;51.312;12.372;2023-08-07T07:23:36;16.20;99.90
3418;DHT22;68007;51.312;12.372;2023-08-07T07:26:04;16.20;99.90
3418;DHT22;68007;51.312;12.372;2023-08-07T07:28:31;16.20;99.90
3418;DHT22;68007;51.312;12.372;2023-08-07T07:30:59;16.20;99.90
3418;DHT22;68007;51.312;12.372;2023-08-07T07:33:26;16.20;99.90
3418;DHT22;68007;51.312;12.372;2023-08-07T07:35:54;16.20;99.90
3418;DHT22;68007;51.312;12.372;2023-08-07T07:38:21;16.30;99.90
3418;DHT22;68007;51.312;12.372;2023-08-07T07:40:50;16.30;99.90
3418;DHT22;68007;51.312;12.372;2023-08-07T07:43:19;16.40;99.90
3418;DHT22;68007;51.312;12.372;2023-08-07T07:45:46;16.40;99.90
3418;DHT22;68007;51.312;12.372;2023-08-07T07:48:14;16.40;99.90
3418;DHT22;68007;51.312;12.372;2023-08-07T07:50:41;16.40;99.80
3418;DHT22;68007;51.312;12.372;2023-08-07T07:53:09;16.40;99.70
3418;DHT22;68007;51.312;12.372;2023-08-07T07:55:36;16.40;99.70
3418;DHT22;68007;51.312;12.372;2023-08-07T07:58:05;16.40;99.40
3418;DHT22;68007;51.312;12.372;2023-08-07T08:00:33;16.40;99.40
3418;DHT22;68007;51.312;12.372;2023-08-07T08:03:01;16.40;99.50
3418;DHT22;68007;51.312;12.372;2023-08-07T08:05:28;16.50;99.50
3418;DHT22;68007;51.312;12.372;2023-08-07T08:07:56;16.50;99.30
3418;DHT22;68007;51.312;12.372;2023-08-07T08:10:23;16.50;99.10
3418;DHT22;68007;51.312;12.372;2023-08-07T08:12:51;16.50;99.40
3418;DHT22;68007;51.312;12.372;2023-08-07T08:15:20;16.50;99.10
3418;DHT22;68007;51.312;12.372;2023-08-07T08:17:48;16.60;99.00
3418;DHT22;68007;51.312;12.372;2023-08-07T08:20:15;16.60;98.80
3418;DHT22;68007;51.312;12.372;2023-08-07T08:22:44;16.70;98.50
3418;DHT22;68007;51.312;12.372;2023-08-07T08:25:12;16.60;98.50
3418;DHT22;68007;51.312;12.372;2023-08-07T08:27:40;16.60;98.20
3418;DHT22;68007;51.312;12.372;2023-08-07T08:30:08;16.60;98.40
3418;DHT22;68007;51.312;12.372;2023-08-07T08:32:37;16.70;98.50
3418;DHT22;68007;51.312;12.372;2023-08-07T08:35:06;16.80;98.30
3418;DHT22;68007;51.312;12.372;2023-08-07T08:37:33;16.80;98.10
3418;DHT22;68007;51.312;12.372;2023-08-07T08:40:01;16.80;98.20
3418;DHT22;68007;51.312;12.372;2023-08-07T08:42:28;16.90;98.00
3418;DHT22;68007;51.312;12.372;2023-08-07T08:44:56;16.90;97.90
3418;DHT22;68007;51.312;12.372;2023-08-07T08:47:26;16.90;97.90
3418;DHT22;68007;51.312;12.372;2023-08-07T08:50:04;17.00;97.90
3418;DHT22;68007;51.312;12.372;2023-08-07T08:52:34;17.00;97.70
3418;DHT22;68007;51.312;12.372;2023-08-07T08:55:03;17.00;97.60
3418;DHT22;68007;51.312;12.372;2023-08-07T08:57:30;17.00;97.40
3418;DHT22;68007;51.312;12.372;2023-08-07T09:00:00;17.10;97.50
3418;DHT22;68007;51.312;12.372;2023-08-07T09:02:30;17.10;97.60
3418;DHT22;68007;51.312;12.372;2023-08-07T09:04:59;17.20;97.30
3418;DHT22;68007;51.312;12.372;2023-08-07T09:07:28;17.20;97.30
3418;DHT22;68007;51.312;12.372;2023-08-07T09:09:56;17.30;97.20
3418;DHT22;68007;51.312;12.372;2023-08-07T09:12:26;17.30;97.30
3418;DHT22;68007;51.312;12.372;2023-08-07T09:14:57;17.30;97.40
3418;DHT22;68007;51.312;12.372;2023-08-07T09:17:28;17.30;97.50
3418;DHT22;68007;51.312;12.372;2023-08-07T09:19:56;17.30;97.40
3418;DHT22;68007;51.312;12.372;2023-08-07T09:22:25;17.30;97.20
3418;DHT22;68007;51.312;12.372;2023-08-07T09:24:53;17.30;97.40
3418;DHT22;68007;51.312;12.372;2023-08-07T09:27:20;17.30;97.40
3418;DHT22;68007;51.312;12.372;2023-08-07T09:29:48;17.30;97.40
3418;DHT22;68007;51.312;12.372;2023-08-07T09:32:16;17.30;97.50
3418;DHT22;68007;51.312;12.372;2023-08-07T09:34:44;17.30;97.40
3418;DHT22;68007;51.312;12.372;2023-08-07T09:37:12;17.40;97.50
3418;DHT22;68007;51.312;12.372;2023-08-07T09:39:41;17.40;97.10
3418;DHT22;68007;51.312;12.372;2023-08-07T09:42:13;17.40;97.00
3418;DHT22;68007;51.312;12.372;2023-08-07T09:44:42;17.50;97.10
3418;DHT22;68007;51.312;12.372;2023-08-07T09:47:12;17.50;97.20
3418;DHT22;68007;51.312;12.372;2023-08-07T09:49:41;17.60;96.60
3418;DHT22;68007;51.312;12.372;2023-08-07T09:52:10;17.60;96.90
3418;DHT22;68007;51.312;12.372;2023-08-07T09:54:41;17.70;96.80
3418;DHT22;68007;51.312;12.372;2023-08-07T09:57:08;17.70;96.40
3418;DHT22;68007;51.312;12.372;2023-08-07T09:59:36;17.70;96.50
3418;DHT22;68007;51.312;12.372;2023-08-07T10:02:04;17.70;96.40
3418;DHT22;68007;51.312;12.372;2023-08-07T10:04:32;17.80;96.80
3418;DHT22;68007;51.312;12.372;2023-08-07T10:07:01;17.80;96.40
3418;DHT22;68007;51.312;12.372;2023-08-07T10:09:29;17.80;96.30
3418;DHT22;68007;51.312;12.372;2023-08-07T10:11:58;17.80;96.60
3418;DHT22;68007;51.312;12.372;2023-08-07T10:14:26;17.90;96.60
3418;DHT22;68007;51.312;12.372;2023-08-07T10:16:54;17.80;97.00
3418;DHT22;68007;51.312;12.372;2023-08-07T10:19:22;17.80;97.40
3418;DHT22;68007;51.312;12.372;2023-08-07T10:21:50;17.70;97.80
3418;DHT22;68007;51.312;12.372;2023-08-07T10:24:20;17.60;97.80
3418;DHT22;68007;51.312;12.372;2023-08-07T10:26:49;17.50;98.20
3418;DHT22;68007;51.312;12.372;2023-08-07T10:29:20;17.40;98.20
3418;DHT22;68007;51.312;12.372;2023-08-07T10:31:50;17.40;98.40
3418;DHT22;68007;51.312;12.372;2023-08-07T10:34:19;17.40;98.60
3418;DHT22;68007;51.312;12.372;2023-08-07T10:36:46;17.40;98.80
3418;DHT22;68007;51.312;12.372;2023-08-07T10:39:15;17.50;98.80
3418;DHT22;68007;51.312;12.372;2023-08-07T10:41:45;17.50;98.60
3418;DHT22;68007;51.312;12.372;2023-08-07T10:44:22;17.50;98.20
3418;DHT22;68007;51.312;12.372;2023-08-07T10:46:51;17.50;98.30
3418;DHT22;68007;51.312;12.372;2023-08-07T10:49:33;17.40;98.20
3418;DHT22;68007;51.312;12.372;2023-08-07T10:52:08;17.50;97.90
3418;DHT22;68007;51.312;12.372;2023-08-07T10:54:40;17.60;97.90
3418;DHT22;68007;51.312;12.372;2023-08-07T10:57:12;17.60;97.80
3418;DHT22;68007;51.312;12.372;2023-08-07T10:59:49;17.60;97.60
3418;DHT22;68007;51.312;12.372;2023-08-07T11:02:23;17.70;97.50
3418;DHT22;68007;51.312;12.372;2023-08-07T11:04:52;17.80;97.10
3418;DHT22;68007;51.312;12.372;2023-08-07T11:07:24;17.90;96.90
3418;DHT22;68007;51.312;12.372;2023-08-07T11:09:52;17.90;96.10
3418;DHT22;68007;51.312;12.372;2023-08-07T11:12:19;17.90;95.80
3418;DHT22;68007;51.312;12.372;2023-08-07T11:14:48;18.00;95.80
3418;DHT22;68007;51.312;12.372;2023-08-07T11:17:16;18.10;95.70
3418;DHT22;68007;51.312;12.372;2023-08-07T11:19:45;18.10;95.00
3418;DHT22;68007;51.312;12.372;2023-08-07T11:22:15;18.10;95.00
3418;DHT22;68007;51.312;12.372;2023-08-07T11:24:43;18.20;94.90
3418;DHT22;68007;51.312;12.372;2023-08-07T11:27:10;18.30;95.00
3418;DHT22;68007;51.312;12.372;2023-08-07T11:29:38;18.30;94.90
3418;DHT22;68007;51.312;12.372;2023-08-07T11:32:09;18.40;94.50
3418;DHT22;68007;51.312;12.372;2023-08-07T11:34:37;18.40;94.50
3418;DHT22;68007;51.312;12.372;2023-08-07T11:37:05;18.40;94.60
3418;DHT22;68007;51.312;12.372;2023-08-07T11:39:32;18.40;94.80
3418;DHT22;68007;51.312;12.372;2023-08-07T11:42:00;18.40;94.90
3418;DHT22;68007;51.312;12.372;2023-08-07T11:44:27;18.40;94.80
3418;DHT22;68007;51.312;12.372;2023-08-07T11:46:55;18.40;94.70
3418;DHT22;68007;51.312;12.372;2023-08-07T11:49:24;18.40;94.60
3418;DHT22;68007;51.312;12.372;2023-08-07T11:51:51;18.40;94.90
3418;DHT22;68007;51.312;12.372;2023-08-07T11:54:19;18.50;94.90
3418;DHT22;68007;51.312;12.372;2023-08-07T11:56:46;18.60;95.10
3418;DHT22;68007;51.312;12.372;2023-08-07T11:59:16;18.70;94.90
3418;DHT22;68007;51.312;12.372;2023-08-07T12:01:46;18.80;94.70
3418;DHT22;68007;51.312;12.372;2023-08-07T12:04:13;18.80;94.70
3418;DHT22;68007;51.312;12.372;2023-08-07T12:06:52;18.80;94.80
3418;DHT22;68007;51.312;12.372;2023-08-07T12:09:20;18.90;94.60
3418;DHT22;68007;51.312;12.372;2023-08-07T12:11:48;18.90;94.80
3418;DHT22;68007;51.312;12.372;2023-08-07T12:14:16;19.00;94.90
3418;DHT22;68007;51.312;12.372;2023-08-07T12:16:44;19.00;94.50
3418;DHT22;68007;51.312;12.372;2023-08-07T12:19:12;19.00;94.30
3418;DHT22;68007;51.312;12.372;2023-08-07T12:21:40;18.80;94.30
3418;DHT22;68007;51.312;12.372;2023-08-07T12:24:09;18.80;94.50
3418;DHT22;68007;51.312;12.372;2023-08-07T12:26:37;18.80;94.70
3418;DHT22;68007;51.312;12.372;2023-08-07T12:29:04;18.90;95.20
3418;DHT22;68007;51.312;12.372;2023-08-07T12:31:32;19.00;95.10
3418;DHT22;68007;51.312;12.372;2023-08-07T12:33:59;19.10;95.10
3418;DHT22;68007;51.312;12.372;2023-08-07T12:36:27;19.30;95.10
3418;DHT22;68007;51.312;12.372;2023-08-07T12:38:54;19.30;94.60
3418;DHT22;68007;51.312;12.372;2023-08-07T12:41:23;19.30;94.10
3418;DHT22;68007;51.312;12.372;2023-08-07T12:43:51;19.30;94.40
3418;DHT22;68007;51.312;12.372;2023-08-07T12:46:18;19.30;94.60
3418;DHT22;68007;51.312;12.372;2023-08-07T12:48:46;19.30;93.70
3418;DHT22;68007;51.312;12.372;2023-08-07T12:51:13;19.30;92.70
3418;DHT22;68007;51.312;12.372;2023-08-07T12:53:41;19.20;92.60
3418;DHT22;68007;51.312;12.372;2023-08-07T12:56:08;19.10;92.80
3418;DHT22;68007;51.312;12.372;2023-08-07T12:58:37;19.00;92.60
3418;DHT22;68007;51.312;12.372;2023-08-07T13:01:04;18.90;92.80
3418;DHT22;68007;51.312;12.372;2023-08-07T13:03:32;18.90;93.10
3418;DHT22;68007;51.312;12.372;2023-08-07T13:06:00;18.90;93.50
3418;DHT22;68007;51.312;12.372;2023-08-07T13:08:31;18.80;93.10
3418;DHT22;68007;51.312;12.372;2023-08-07T13:10:59;18.80;93.40
3418;DHT22;68007;51.312;12.372;2023-08-07T13:13:27;18.90;93.40
3418;DHT22;68007;51.312;12.372;2023-08-07T13:15:56;18.90;93.50
3418;DHT22;68007;51.312;12.372;2023-08-07T13:18:24;18.90;93.80
3418;DHT22;68007;51.312;12.372;2023-08-07T13:20:52;19.00;93.80
3418;DHT22;68007;51.312;12.372;2023-08-07T13:23:19;19.00;93.70
3418;DHT22;68007;51.312;12.372;2023-08-07T13:25:46;19.00;93.40
3418;DHT22;68007;51.312;12.372;2023-08-07T13:28:14;19.10;91.90
3418;DHT22;68007;51.312;12.372;2023-08-07T13:30:42;19.10;91.70
3418;DHT22;68007;51.312;12.372;2023-08-07T13:33:11;19.20;92.20
3418;DHT22;68007;51.312;12.372;2023-08-07T13:35:38;19.30;92.00
3418;DHT22;68007;51.312;12.372;2023-08-07T13:38:06;19.30;92.10
3418;DHT22;68007;51.312;12.372;2023-08-07T13:40:34;19.40;92.40
3418;DHT22;68007;51.312;12.372;2023-08-07T13:43:01;19.40;92.50
3418;DHT22;68007;51.312;12.372;2023-08-07T13:45:33;19.40;92.20
3418;DHT22;68007;51.312;12.372;2023-08-07T13:48:01;19.40;92.00
3418;DHT22;68007;51.312;12.372;2023-08-07T13:50:30;19.30;91.90
3418;DHT22;68007;51.312;12.372;2023-08-07T13:52:58;19.30;92.60
3418;DHT22;68007;51.312;12.372;2023-08-07T13:55:25;19.30;93.70
3418;DHT22;68007;51.312;12.372;2023-08-07T13:57:54;19.40;94.30
3418;DHT22;68007;51.312;12.372;2023-08-07T14:00:21;19.30;94.80
3418;DHT22;68007;51.312;12.372;2023-08-07T14:02:49;19.30;95.60
3418;DHT22;68007;51.312;12.372;2023-08-07T14:05:16;19.30;95.60
3418;DHT22;68007;51.312;12.372;2023-08-07T14:07:45;19.30;95.30
3418;DHT22;68007;51.312;12.372;2023-08-07T14:10:13;19.20;95.40
3418;DHT22;68007;51.312;12.372;2023-08-07T14:12:40;19.20;95.60
3418;DHT22;68007;51.312;12.372;2023-08-07T14:15:08;19.30;95.70
3418;DHT22;68007;51.312;12.372;2023-08-07T14:17:36;19.30;95.70
3418;DHT22;68007;51.312;12.372;2023-08-07T14:20:04;19.20;94.90
3418;DHT22;68007;51.312;12.372;2023-08-07T14:22:32;19.10;94.30
3418;DHT22;68007;51.312;12.372;2023-08-07T14:25:03;18.90;93.20
3418;DHT22;68007;51.312;12.372;2023-08-07T14:27:31;18.60;93.00
3418;DHT22;68007;51.312;12.372;2023-08-07T14:29:59;18.50;94.00
3418;DHT22;68007;51.312;12.372;2023-08-07T14:32:27;18.60;94.90
3418;DHT22;68007;51.312;12.372;2023-08-07T14:34:54;18.70;94.80
3418;DHT22;68007;51.312;12.372;2023-08-07T14:37:22;18.80;95.10
3418;DHT22;68007;51.312;12.372;2023-08-07T14:39:49;18.80;95.30
3418;DHT22;68007;51.312;12.372;2023-08-07T14:42:18;18.90;95.40
3418;DHT22;68007;51.312;12.372;2023-08-07T14:44:46;18.80;95.40
3418;DHT22;68007;51.312;12.372;2023-08-07T14:47:14;18.90;95.20
3418;DHT22;68007;51.312;12.372;2023-08-07T14:49:42;18.70;94.80
3418;DHT22;68007;51.312;12.372;2023-08-07T14:52:09;18.50;95.40
3418;DHT22;68007;51.312;12.372;2023-08-07T14:54:37;18.40;96.00
3418;DHT22;68007;51.312;12.372;2023-08-07T14:57:05;18.30;96.30
3418;DHT22;68007;51.312;12.372;2023-08-07T14:59:33;18.20;96.70
3418;DHT22;68007;51.312;12.372;2023-08-07T15:02:01;18.20;97.00
3418;DHT22;68007;51.312;12.372;2023-08-07T15:04:29;18.30;97.10
3418;DHT22;68007;51.312;12.372;2023-08-07T15:06:56;18.30;97.10
3418;DHT22;68007;51.312;12.372;2023-08-07T15:09:23;18.40;97.20
3418;DHT22;68007;51.312;12.372;2023-08-07T15:11:51;18.40;96.80
3418;DHT22;68007;51.312;12.372;2023-08-07T15:14:19;18.40;96.30
3418;DHT22;68007;51.312;12.372;2023-08-07T15:16:48;18.40;95.90
3418;DHT22;68007;51.312;12.372;2023-08-07T15:19:15;18.40;95.40
3418;DHT22;68007;51.312;12.372;2023-08-07T15:21:43;18.50;95.30
3418;DHT22;68007;51.312;12.372;2023-08-07T15:24:10;18.40;94.80
3418;DHT22;68007;51.312;12.372;2023-08-07T15:26:38;18.40;94.20
3418;DHT22;68007;51.312;12.372;2023-08-07T15:29:05;18.40;94.10
3418;DHT22;68007;51.312;12.372;2023-08-07T15:31:33;18.40;93.70
3418;DHT22;68007;51.312;12.372;2023-08-07T15:34:01;18.40;93.80
3418;DHT22;68007;51.312;12.372;2023-08-07T15:36:29;18.40;93.80